Time;durP1;ratioP1;P1;durP2;ratioP2;P2;SDS_P1;SDS_P2;PMS_P1;PMS_P2;Temp;Humidity;BMP_temperature;BMP_pressure;BME280_temperature;BME280_humidity;BME280_pressure;Samples;Min_cycle;Max_cycle;Signal;HPM_P1;HPM_P2
2021/08/02 00:00:03;;;;;;;42.60;9.53;;;;;;;;;;4971991;28;20425;-46
2021/08/02 00:02:35;;;;;;;56.40;8.30;;;;;;;;;;4972072;28;20406;-46
2021/08/02 00:05:02;;;;;;;56.70;8.33;;;;;;;;;;4972464;28;20380;-46
2021/08/02 00:07:29;;;;;;;51.40;7.73;;;;;;;;;;4972087;28;20890;-46
2021/08/02 00:09:58;;;;;;;25.40;9.70;;;;;;;;;;4972009;28;20425;-46
2021/08/02 00:12:28;;;;;;;12.43;9.00;;;;;;;;;;4971983;28;20394;-46
2021/08/02 00:14:57;;;;;;;12.30;9.57;;;;;;;;;;4972132;28;20933;-46
2021/08/02 00:17:23;;;;;;;16.53;9.33;;;;;;;;;;4972080;28;20423;-46
2021/08/02 00:19:50;;;;;;;11.63;9.00;;;;;;;;;;4971821;28;20768;-46
2021/08/02 00:22:16;;;;;;;12.97;8.83;;;;;;;;;;4972089;28;20391;-46
2021/08/02 00:24:42;;;;;;;9.50;8.50;;;;;;;;;;4972040;28;20893;-47
2021/08/02 00:27:08;;;;;;;11.73;7.80;;;;;;;;;;4971812;28;20931;-46
2021/08/02 00:29:34;;;;;;;11.77;8.70;;;;;;;;;;4971577;28;20450;-46
2021/08/02 00:32:01;;;;;;;11.63;9.87;;;;;;;;;;4972001;28;20383;-46
2021/08/02 00:34:27;;;;;;;11.70;8.47;;;;;;;;;;4972068;28;20734;-46
2021/08/02 00:37:00;;;;;;;11.23;9.33;;;;;;;;;;4971865;28;20422;-47
2021/08/02 00:39:30;;;;;;;11.70;8.90;;;;;;;;;;4971793;28;20428;-46
2021/08/02 00:41:59;;;;;;;11.73;9.37;;;;;;;;;;4971939;28;20412;-46
2021/08/02 00:44:44;;;;;;;10.47;8.90;;;;;;;;;;4971822;28;20407;-47
2021/08/02 00:47:16;;;;;;;15.13;9.10;;;;;;;;;;4971864;28;20391;-46
2021/08/02 00:49:48;;;;;;;10.73;9.57;;;;;;;;;;4971571;28;20460;-45
2021/08/02 00:52:15;;;;;;;12.03;9.33;;;;;;;;;;4971667;28;20416;-46
2021/08/02 00:54:41;;;;;;;14.57;9.97;;;;;;;;;;4971825;28;20384;-46
2021/08/02 00:57:08;;;;;;;13.70;10.97;;;;;;;;;;4971813;28;20456;-45
2021/08/02 00:59:34;;;;;;;19.73;11.30;;;;;;;;;;4971552;28;20421;-46
2021/08/02 01:02:00;;;;;;;15.13;10.57;;;;;;;;;;4970967;28;20441;-46
2021/08/02 01:04:27;;;;;;;19.27;12.77;;;;;;;;;;4971390;28;20413;-46
2021/08/02 01:06:53;;;;;;;18.77;12.03;;;;;;;;;;4971172;28;20428;-46
2021/08/02 01:09:21;;;;;;;17.67;10.90;;;;;;;;;;4971254;28;20991;-46
2021/08/02 01:11:49;;;;;;;15.10;10.73;;;;;;;;;;4971624;28;20797;-46
2021/08/02 01:14:15;;;;;;;14.73;10.87;;;;;;;;;;4971585;28;20367;-46
2021/08/02 01:16:41;;;;;;;19.23;12.00;;;;;;;;;;4971781;28;20955;-46
2021/08/02 01:19:08;;;;;;;22.47;11.97;;;;;;;;;;4971358;28;20899;-46
2021/08/02 01:21:38;;;;;;;23.70;13.07;;;;;;;;;;4971425;28;20405;-46
2021/08/02 01:24:05;;;;;;;17.03;13.20;;;;;;;;;;4971351;28;20839;-47
2021/08/02 01:26:43;;;;;;;136.93;55.47;;;;;;;;;;4971535;28;20864;-47
2021/08/02 01:29:28;;;;;;;20.10;13.63;;;;;;;;;;4971054;28;20951;-46
2021/08/02 01:31:54;;;;;;;18.10;13.00;;;;;;;;;;4971400;28;20419;-46
2021/08/02 01:34:20;;;;;;;17.73;11.97;;;;;;;;;;4971346;28;20397;-46
2021/08/02 01:36:46;;;;;;;15.87;11.70;;;;;;;;;;4971792;28;20387;-45
2021/08/02 01:39:12;;;;;;;16.50;12.77;;;;;;;;;;4971181;28;20420;-46
2021/08/02 01:41:38;;;;;;;16.70;12.03;;;;;;;;;;4971164;28;20947;-46
2021/08/02 01:44:04;;;;;;;20.47;13.50;;;;;;;;;;4972181;28;20500;-46
2021/08/02 01:46:30;;;;;;;16.20;12.47;;;;;;;;;;4974765;28;20484;-46
2021/08/02 01:49:15;;;;;;;18.63;12.80;;;;;;;;;;4974497;28;20526;-46
2021/08/02 01:51:49;;;;;;;19.67;12.13;;;;;;;;;;4974434;28;20420;-47
2021/08/02 01:54:38;;;;;;;17.90;12.03;;;;;;;;;;4974598;28;20374;-46
2021/08/02 01:57:40;;;;;;;15.00;11.60;;;;;;;;;;4964351;28;20863;-46
2021/08/02 02:00:08;;;;;;;18.10;12.63;;;;;;;;;;4895466;29;20421;-46
2021/08/02 02:02:34;;;;;;;19.93;12.00;;;;;;;;;;4959249;28;20413;-45
2021/08/02 02:05:13;;;;;;;19.10;11.63;;;;;;;;;;4974237;28;20484;-47
2021/08/02 02:07:44;;;;;;;23.63;12.73;;;;;;;;;;4974278;28;20438;-47
2021/08/02 02:10:11;;;;;;;19.17;12.90;;;;;;;;;;4974295;28;20421;-46
2021/08/02 02:12:37;;;;;;;18.17;12.50;;;;;;;;;;4974179;28;20885;-47
2021/08/02 02:15:03;;;;;;;15.60;12.13;;;;;;;;;;4974590;28;20430;-47
2021/08/02 02:17:30;;;;;;;22.53;14.30;;;;;;;;;;4974119;28;20397;-46
2021/08/02 02:19:56;;;;;;;18.40;12.27;;;;;;;;;;4973891;28;20435;-46
2021/08/02 02:22:23;;;;;;;21.50;12.20;;;;;;;;;;4974110;28;20475;-45
2021/08/02 02:24:50;;;;;;;17.40;12.17;;;;;;;;;;4974444;28;20383;-47
2021/08/02 02:27:17;;;;;;;16.87;11.60;;;;;;;;;;4974007;28;20956;-46
2021/08/02 02:29:44;;;;;;;18.57;9.30;;;;;;;;;;4973514;28;20485;-45
2021/08/02 02:32:11;;;;;;;16.93;10.40;;;;;;;;;;4973768;28;20468;-45
2021/08/02 02:34:37;;;;;;;16.47;11.20;;;;;;;;;;4973832;28;20461;-46
2021/08/02 02:37:04;;;;;;;15.40;11.17;;;;;;;;;;4973970;28;20383;-47
2021/08/02 02:39:30;;;;;;;15.80;10.50;;;;;;;;;;4973653;28;20467;-46
2021/08/02 02:41:57;;;;;;;13.07;8.73;;;;;;;;;;4973601;28;20919;-46
2021/08/02 02:44:23;;;;;;;11.20;8.90;;;;;;;;;;4973688;28;20411;-46
2021/08/02 02:46:49;;;;;;;15.77;9.23;;;;;;;;;;4973750;28;20394;-46
2021/08/02 02:49:17;;;;;;;14.07;9.73;;;;;;;;;;4973475;28;20474;-46
2021/08/02 02:51:43;;;;;;;13.50;8.40;;;;;;;;;;4973404;28;20912;-45
2021/08/02 02:54:10;;;;;;;12.30;8.17;;;;;;;;;;4973398;28;20878;-46
2021/08/02 02:56:37;;;;;;;11.80;8.10;;;;;;;;;;4973474;28;20595;-45
2021/08/02 02:59:03;;;;;;;9.93;7.77;;;;;;;;;;4973692;28;20796;-46
2021/08/02 03:01:33;;;;;;;10.43;8.17;;;;;;;;;;4973737;28;20416;-46
2021/08/02 03:04:00;;;;;;;13.77;8.20;;;;;;;;;;4973658;28;20446;-46
2021/08/02 03:06:28;;;;;;;11.27;8.83;;;;;;;;;;4973399;28;20386;-46
2021/08/02 03:08:54;;;;;;;11.37;9.90;;;;;;;;;;4973176;28;20461;-46
2021/08/02 03:11:21;;;;;;;16.30;9.87;;;;;;;;;;4973103;28;21057;-45
2021/08/02 03:13:50;;;;;;;11.27;8.53;;;;;;;;;;4972885;28;20587;-46
2021/08/02 03:16:16;;;;;;;12.80;9.57;;;;;;;;;;4973506;28;20768;-46
2021/08/02 03:18:42;;;;;;;13.90;11.07;;;;;;;;;;4972942;28;20390;-46
2021/08/02 03:21:08;;;;;;;14.77;11.60;;;;;;;;;;4972864;28;20380;-46
2021/08/02 03:23:34;;;;;;;17.10;12.20;;;;;;;;;;4972929;28;20462;-46
2021/08/02 03:26:03;;;;;;;16.13;12.60;;;;;;;;;;4973215;28;20388;-45
2021/08/02 03:28:35;;;;;;;15.93;11.47;;;;;;;;;;4972961;28;20796;-46
2021/08/02 03:31:03;;;;;;;20.93;10.47;;;;;;;;;;4972494;28;20453;-47
2021/08/02 03:33:33;;;;;;;10.73;7.70;;;;;;;;;;4972688;28;20466;-48
2021/08/02 03:36:02;;;;;;;15.07;9.07;;;;;;;;;;4972727;28;20410;-47
2021/08/02 03:38:28;;;;;;;65.23;8.70;;;;;;;;;;4972663;28;20407;-46
2021/08/02 03:40:55;;;;;;;55.50;9.70;;;;;;;;;;4972155;28;20470;-47
2021/08/02 03:43:22;;;;;;;21.43;9.60;;;;;;;;;;4972532;28;20408;-46
2021/08/02 03:45:48;;;;;;;20.43;8.37;;;;;;;;;;4972707;28;20410;-46
2021/08/02 03:48:14;;;;;;;11.83;8.50;;;;;;;;;;4972477;28;20495;-46
2021/08/02 03:50:40;;;;;;;15.37;7.87;;;;;;;;;;4972458;28;20430;-45
2021/08/02 03:53:06;;;;;;;27.03;11.53;;;;;;;;;;4972443;28;20401;-48
2021/08/02 03:55:33;;;;;;;13.43;8.30;;;;;;;;;;4972291;28;20370;-46
2021/08/02 03:57:59;;;;;;;17.80;9.33;;;;;;;;;;4972340;28;20409;-46
2021/08/02 04:00:25;;;;;;;13.50;8.00;;;;;;;;;;4972010;28;20486;-47
2021/08/02 04:02:51;;;;;;;16.43;9.27;;;;;;;;;;4972205;28;20412;-47
2021/08/02 04:05:18;;;;;;;158.77;85.43;;;;;;;;;;4972204;28;20382;-46
2021/08/02 04:07:44;;;;;;;80.43;23.80;;;;;;;;;;4971508;28;20921;-46
2021/08/02 04:10:11;;;;;;;36.63;19.60;;;;;;;;;;4972217;28;20447;-46
2021/08/02 04:12:37;;;;;;;16.83;7.50;;;;;;;;;;4972377;28;20459;-45
2021/08/02 04:15:04;;;;;;;207.40;77.47;;;;;;;;;;4972064;28;20960;-45
2021/08/02 04:17:30;;;;;;;210.77;48.40;;;;;;;;;;4972076;28;20422;-45
2021/08/02 04:19:56;;;;;;;15.63;8.90;;;;;;;;;;4971793;28;20488;-45
2021/08/02 04:22:22;;;;;;;401.17;140.07;;;;;;;;;;4971949;28;20446;-46
2021/08/02 04:24:47;;;;;;;14.33;7.40;;;;;;;;;;4971872;28;20418;-46
2021/08/02 04:27:13;;;;;;;210.53;147.57;;;;;;;;;;4972020;28;20409;-46
2021/08/02 04:29:39;;;;;;;37.87;13.90;;;;;;;;;;4971470;28;20521;-48
2021/08/02 04:32:06;;;;;;;11.10;8.30;;;;;;;;;;4972052;28;20564;-46
2021/08/02 04:34:31;;;;;;;124.37;49.87;;;;;;;;;;4971929;28;20853;-47
2021/08/02 04:36:57;;;;;;;14.30;7.90;;;;;;;;;;4971911;28;20430;-46
2021/08/02 04:39:23;;;;;;;10.00;8.10;;;;;;;;;;4971809;28;20821;-46
2021/08/02 04:41:49;;;;;;;70.70;24.63;;;;;;;;;;4971523;28;20408;-46
2021/08/02 04:44:15;;;;;;;12.80;8.30;;;;;;;;;;4971848;28;20905;-46
2021/08/02 04:46:41;;;;;;;13.63;9.00;;;;;;;;;;4971745;28;20408;-46
2021/08/02 04:49:07;;;;;;;13.63;8.53;;;;;;;;;;4971661;28;20461;-46
2021/08/02 04:51:33;;;;;;;14.90;8.40;;;;;;;;;;4971390;28;20491;-46
2021/08/02 04:53:59;;;;;;;11.90;7.30;;;;;;;;;;4971703;28;20407;-46
2021/08/02 04:56:25;;;;;;;13.00;7.20;;;;;;;;;;4971747;28;20759;-46
2021/08/02 04:58:51;;;;;;;13.00;8.33;;;;;;;;;;4971766;28;20389;-46
2021/08/02 05:01:17;;;;;;;12.20;8.80;;;;;;;;;;4971530;28;20411;-47
2021/08/02 05:03:43;;;;;;;17.67;8.10;;;;;;;;;;4971650;28;20380;-47
2021/08/02 05:06:09;;;;;;;13.00;7.50;;;;;;;;;;4971627;28;20478;-49
2021/08/02 05:08:35;;;;;;;18.17;7.47;;;;;;;;;;4971651;28;20813;-46
2021/08/02 05:11:02;;;;;;;10.83;7.77;;;;;;;;;;4971623;28;21080;-45
2021/08/02 05:13:28;;;;;;;9.40;6.77;;;;;;;;;;4971780;28;20407;-46
2021/08/02 05:15:54;;;;;;;8.60;6.73;;;;;;;;;;4971744;28;20773;-46
2021/08/02 05:18:20;;;;;;;13.37;7.80;;;;;;;;;;4973474;28;20415;-46
2021/08/02 05:20:46;;;;;;;16.33;7.50;;;;;;;;;;4975721;28;20446;-49
2021/08/02 05:23:12;;;;;;;16.70;7.37;;;;;;;;;;4975409;28;20382;-45
2021/08/02 05:25:38;;;;;;;12.90;6.33;;;;;;;;;;4975373;28;20375;-46
2021/08/02 05:28:04;;;;;;;8.63;5.97;;;;;;;;;;4975267;28;20435;-46
2021/08/02 05:30:30;;;;;;;10.57;7.23;;;;;;;;;;4974804;28;20430;-46
2021/08/02 05:32:56;;;;;;;11.37;7.30;;;;;;;;;;4975103;28;20376;-46
2021/08/02 05:35:22;;;;;;;16.63;8.33;;;;;;;;;;4974916;28;20467;-46
2021/08/02 05:37:48;;;;;;;10.80;7.03;;;;;;;;;;4974993;28;20855;-46
2021/08/02 05:40:14;;;;;;;8.67;6.70;;;;;;;;;;4974653;28;20965;-47
2021/08/02 05:42:40;;;;;;;13.77;6.47;;;;;;;;;;4974731;28;20407;-47
2021/08/02 05:45:07;;;;;;;10.97;6.60;;;;;;;;;;4974800;28;20452;-46
2021/08/02 05:47:33;;;;;;;9.17;6.43;;;;;;;;;;4974661;28;20405;-46
2021/08/02 05:49:59;;;;;;;7.90;6.47;;;;;;;;;;4974268;28;20984;-45
2021/08/02 05:52:27;;;;;;;11.80;6.87;;;;;;;;;;4974475;28;20416;-47
2021/08/02 05:54:53;;;;;;;9.23;7.20;;;;;;;;;;4974633;28;20412;-46
2021/08/02 05:57:22;;;;;;;12.70;7.00;;;;;;;;;;4974482;28;20401;-47
2021/08/02 05:59:48;;;;;;;10.40;6.77;;;;;;;;;;4974256;28;20403;-46
2021/08/02 06:02:14;;;;;;;13.23;6.23;;;;;;;;;;4974297;28;20387;-46
2021/08/02 06:04:41;;;;;;;8.60;6.20;;;;;;;;;;4974307;28;20413;-46
2021/08/02 06:07:07;;;;;;;9.57;5.57;;;;;;;;;;4974503;28;20422;-46
2021/08/02 06:09:34;;;;;;;8.80;5.97;;;;;;;;;;4974058;28;20466;-46
2021/08/02 06:12:01;;;;;;;9.00;6.30;;;;;;;;;;4973934;28;20379;-46
2021/08/02 06:14:27;;;;;;;15.40;6.63;;;;;;;;;;4974285;28;20492;-47
2021/08/02 06:16:53;;;;;;;17.30;6.80;;;;;;;;;;4974102;28;20436;-46
2021/08/02 06:19:19;;;;;;;11.27;7.10;;;;;;;;;;4974556;28;20620;-46
2021/08/02 06:21:45;;;;;;;7.93;5.70;;;;;;;;;;4973749;28;20405;-47
2021/08/02 06:24:11;;;;;;;11.50;5.73;;;;;;;;;;4974068;28;20409;-47
2021/08/02 06:26:37;;;;;;;7.40;5.70;;;;;;;;;;4973945;28;20444;-47
2021/08/02 06:29:03;;;;;;;6.53;5.47;;;;;;;;;;4973780;28;20464;-47
2021/08/02 06:31:29;;;;;;;11.50;6.13;;;;;;;;;;4974421;28;20417;-46
2021/08/02 06:33:55;;;;;;;7.73;5.90;;;;;;;;;;4973804;28;20402;-46
2021/08/02 06:36:22;;;;;;;13.87;5.33;;;;;;;;;;4973855;28;20405;-46
2021/08/02 06:38:48;;;;;;;9.13;5.13;;;;;;;;;;4973693;28;20384;-46
2021/08/02 06:41:14;;;;;;;5.20;4.70;;;;;;;;;;4973642;28;20492;-46
2021/08/02 06:43:41;;;;;;;9.20;5.50;;;;;;;;;;4973978;28;20379;-46
2021/08/02 06:46:07;;;;;;;14.13;6.17;;;;;;;;;;4973686;28;20835;-46
2021/08/02 06:48:33;;;;;;;7.10;5.27;;;;;;;;;;4973703;28;20448;-47
2021/08/02 06:51:00;;;;;;;7.80;5.23;;;;;;;;;;4973349;28;20438;-46
2021/08/02 06:53:26;;;;;;;7.80;5.47;;;;;;;;;;4973542;28;20419;-46
2021/08/02 06:55:52;;;;;;;7.60;4.67;;;;;;;;;;4973496;28;20894;-46
2021/08/02 06:58:18;;;;;;;9.10;5.30;;;;;;;;;;4973390;28;20415;-46
2021/08/02 07:00:44;;;;;;;9.80;5.27;;;;;;;;;;4973099;28;20830;-46
2021/08/02 07:03:10;;;;;;;8.20;4.90;;;;;;;;;;4973260;28;20568;-46
2021/08/02 07:05:36;;;;;;;8.30;5.50;;;;;;;;;;4973335;28;20403;-46
2021/08/02 07:08:02;;;;;;;7.30;5.10;;;;;;;;;;4973145;28;20885;-46
2021/08/02 07:10:28;;;;;;;8.53;6.10;;;;;;;;;;4973057;28;20425;-46
2021/08/02 07:12:54;;;;;;;6.50;5.30;;;;;;;;;;4973146;28;21003;-46
2021/08/02 07:15:20;;;;;;;8.67;5.83;;;;;;;;;;4973085;28;20489;-46
2021/08/02 07:17:46;;;;;;;10.27;5.10;;;;;;;;;;4973262;28;20442;-46
2021/08/02 07:20:12;;;;;;;8.93;5.77;;;;;;;;;;4972839;28;20403;-46
2021/08/02 07:22:38;;;;;;;10.60;5.40;;;;;;;;;;4973065;28;20437;-46
2021/08/02 07:25:04;;;;;;;10.77;5.20;;;;;;;;;;4973020;28;20408;-46
2021/08/02 07:27:30;;;;;;;7.60;4.30;;;;;;;;;;4972992;28;20491;-46
2021/08/02 07:29:56;;;;;;;8.30;4.53;;;;;;;;;;4972332;28;20898;-46
2021/08/02 07:32:22;;;;;;;11.17;4.50;;;;;;;;;;4972840;28;20404;-46
2021/08/02 07:34:48;;;;;;;4.87;3.97;;;;;;;;;;4972812;28;20407;-46
2021/08/02 07:37:14;;;;;;;6.70;4.00;;;;;;;;;;4972785;28;20871;-46
2021/08/02 07:39:40;;;;;;;9.27;4.80;;;;;;;;;;4962013;28;20452;-47
2021/08/02 07:42:06;;;;;;;7.23;3.90;;;;;;;;;;4970886;28;20478;-46
2021/08/02 07:44:33;;;;;;;6.50;4.07;;;;;;;;;;4963959;28;20764;-47
2021/08/02 07:46:59;;;;;;;9.67;4.00;;;;;;;;;;4971709;28;20717;-46
2021/08/02 07:49:25;;;;;;;7.77;4.30;;;;;;;;;;4971379;28;20459;-47
2021/08/02 07:51:50;;;;;;;7.80;4.20;;;;;;;;;;4952603;28;20388;-46
2021/08/02 07:54:16;;;;;;;6.33;4.37;;;;;;;;;;4952260;29;20374;-46
2021/08/02 07:56:42;;;;;;;5.20;4.70;;;;;;;;;;4952603;29;20386;-46
2021/08/02 07:59:08;;;;;;;7.50;3.63;;;;;;;;;;4952874;29;20812;-46
2021/08/02 08:01:34;;;;;;;5.83;3.40;;;;;;;;;;4952405;29;20933;-46
2021/08/02 08:04:00;;;;;;;7.37;3.50;;;;;;;;;;4952933;29;20387;-46
2021/08/02 08:06:26;;;;;;;4.03;3.43;;;;;;;;;;4952898;29;20384;-47
2021/08/02 08:08:52;;;;;;;4.07;3.10;;;;;;;;;;4952868;29;20462;-46
2021/08/02 08:11:18;;;;;;;9.23;3.60;;;;;;;;;;4952719;29;20405;-45
2021/08/02 08:13:44;;;;;;;11.20;3.67;;;;;;;;;;4952779;29;20898;-46
2021/08/02 08:16:11;;;;;;;5.37;3.40;;;;;;;;;;4952840;29;20403;-46
2021/08/02 08:18:37;;;;;;;5.63;4.13;;;;;;;;;;4952885;29;20412;-47
2021/08/02 08:21:03;;;;;;;7.70;3.50;;;;;;;;;;4952541;29;20469;-46
2021/08/02 08:23:31;;;;;;;3.90;2.60;;;;;;;;;;4952761;29;20773;-46
2021/08/02 08:25:59;;;;;;;7.80;3.00;;;;;;;;;;4952744;29;20385;-46
2021/08/02 08:28:25;;;;;;;6.40;3.23;;;;;;;;;;4952654;29;20475;-46
2021/08/02 08:30:51;;;;;;;4.90;2.63;;;;;;;;;;4935347;29;20437;-46
2021/08/02 08:33:18;;;;;;;4.23;3.20;;;;;;;;;;4952675;29;20946;-46
2021/08/02 08:35:44;;;;;;;5.87;3.07;;;;;;;;;;4952644;29;20417;-46
2021/08/02 08:38:10;;;;;;;5.80;3.67;;;;;;;;;;4952636;29;20388;-46
2021/08/02 08:40:36;;;;;;;3.90;3.50;;;;;;;;;;4952425;29;20406;-46
2021/08/02 08:43:03;;;;;;;3.40;2.97;;;;;;;;;;4952394;29;20425;-47
2021/08/02 08:45:29;;;;;;;8.80;3.73;;;;;;;;;;4952523;29;20755;-46
2021/08/02 08:47:56;;;;;;;5.90;3.10;;;;;;;;;;4952463;29;20390;-46
2021/08/02 08:50:23;;;;;;;3.87;3.07;;;;;;;;;;4952632;29;20506;-46
2021/08/02 08:52:50;;;;;;;11.37;3.77;;;;;;;;;;4953617;28;20901;-45
2021/08/02 08:55:15;;;;;;;8.43;4.20;;;;;;;;;;4956666;29;20404;-46
2021/08/02 08:57:42;;;;;;;6.10;3.13;;;;;;;;;;4956583;29;20479;-47
2021/08/02 09:00:24;;;;;;;7.93;3.30;;;;;;;;;;4956240;29;20462;-46
2021/08/02 09:02:51;;;;;;;3.47;3.03;;;;;;;;;;4956196;29;20460;-47
2021/08/02 09:05:17;;;;;;;10.97;3.00;;;;;;;;;;4956373;29;20410;-47
2021/08/02 09:07:44;;;;;;;5.20;2.70;;;;;;;;;;4956192;29;20451;-46
2021/08/02 09:10:11;;;;;;;7.33;3.10;;;;;;;;;;4955777;29;20489;-46
2021/08/02 09:12:47;;;;;;;3.13;2.83;;;;;;;;;;4956006;29;20622;-46
2021/08/02 09:15:13;;;;;;;3.00;2.63;;;;;;;;;;4956311;29;20404;-47
2021/08/02 09:17:40;;;;;;;7.13;3.13;;;;;;;;;;4955995;29;20397;-47
2021/08/02 09:20:26;;;;;;;4.20;3.70;;;;;;;;;;4965668;28;20456;-46
2021/08/02 09:22:53;;;;;;;4.90;3.10;;;;;;;;;;4974986;28;20419;-47
2021/08/02 09:25:20;;;;;;;4.47;3.50;;;;;;;;;;4975108;28;20419;-47
2021/08/02 09:27:47;;;;;;;3.60;3.30;;;;;;;;;;4975185;28;20455;-46
2021/08/02 09:30:14;;;;;;;5.63;3.07;;;;;;;;;;4974457;28;20592;-47
2021/08/02 09:32:46;;;;;;;6.37;3.80;;;;;;;;;;4974762;28;20503;-47
2021/08/02 09:35:12;;;;;;;4.57;4.03;;;;;;;;;;4974718;28;20419;-46
2021/08/02 09:37:38;;;;;;;5.70;3.80;;;;;;;;;;4974870;28;20496;-46
2021/08/02 09:40:05;;;;;;;4.40;3.80;;;;;;;;;;4990314;28;20439;-46
2021/08/02 09:42:31;;;;;;;4.43;4.03;;;;;;;;;;4994394;28;20951;-46
2021/08/02 09:45:01;;;;;;;5.40;3.50;;;;;;;;;;4994066;28;20495;-47
2021/08/02 09:47:30;;;;;;;3.47;3.23;;;;;;;;;;4994046;28;20689;-47
2021/08/02 09:49:56;;;;;;;5.40;2.80;;;;;;;;;;4993723;28;20495;-47
2021/08/02 09:52:22;;;;;;;11.50;3.43;;;;;;;;;;4994028;28;20747;-46
2021/08/02 09:54:58;;;;;;;3.70;3.40;;;;;;;;;;4993898;28;20400;-47
2021/08/02 09:57:24;;;;;;;7.27;2.93;;;;;;;;;;4993786;28;20766;-47
2021/08/02 09:59:51;;;;;;;5.30;4.30;;;;;;;;;;4994003;28;20922;-46
2021/08/02 10:02:17;;;;;;;5.10;3.20;;;;;;;;;;4993565;28;20421;-47
2021/08/02 10:04:43;;;;;;;4.23;3.70;;;;;;;;;;4992775;28;20408;-47
2021/08/02 10:07:13;;;;;;;3.53;3.23;;;;;;;;;;4993763;28;20433;-47
2021/08/02 10:09:39;;;;;;;3.73;3.23;;;;;;;;;;4993451;28;20469;-47
2021/08/02 10:12:05;;;;;;;4.63;3.27;;;;;;;;;;4993456;28;20407;-47
2021/08/02 10:14:32;;;;;;;3.70;3.40;;;;;;;;;;4993468;28;20425;-47
2021/08/02 10:17:00;;;;;;;4.53;3.50;;;;;;;;;;4993522;28;20404;-47
2021/08/02 10:19:39;;;;;;;6.93;3.60;;;;;;;;;;4993497;28;20838;-47
2021/08/02 10:22:07;;;;;;;3.30;3.10;;;;;;;;;;4993579;28;20417;-47
2021/08/02 10:24:33;;;;;;;4.23;3.87;;;;;;;;;;4993787;28;20412;-47
2021/08/02 10:27:01;;;;;;;3.27;3.07;;;;;;;;;;4993870;28;20413;-47
2021/08/02 10:29:41;;;;;;;3.10;2.87;;;;;;;;;;4993060;28;20546;-47
2021/08/02 10:32:07;;;;;;;7.97;4.37;;;;;;;;;;4993309;28;20407;-47
2021/08/02 10:34:33;;;;;;;4.83;4.43;;;;;;;;;;4993223;28;20413;-47
2021/08/02 10:37:03;;;;;;;4.77;4.37;;;;;;;;;;4993288;28;20440;-47
2021/08/02 10:39:30;;;;;;;4.37;3.97;;;;;;;;;;4993115;28;20476;-47
2021/08/02 10:42:06;;;;;;;8.03;4.77;;;;;;;;;;4993245;28;20413;-47
2021/08/02 10:44:32;;;;;;;4.73;4.43;;;;;;;;;;4993139;28;20759;-47
2021/08/02 10:47:03;;;;;;;4.83;4.43;;;;;;;;;;4993354;28;20461;-47
2021/08/02 10:49:29;;;;;;;4.60;3.90;;;;;;;;;;4992782;28;20469;-47
2021/08/02 10:51:56;;;;;;;5.33;4.07;;;;;;;;;;4992800;28;20505;-47
2021/08/02 10:54:22;;;;;;;5.13;3.80;;;;;;;;;;4992909;28;20883;-47
2021/08/02 10:56:48;;;;;;;8.40;4.90;;;;;;;;;;4992963;28;20439;-47
2021/08/02 10:59:18;;;;;;;4.57;4.27;;;;;;;;;;4992954;28;20505;-47
2021/08/02 11:01:47;;;;;;;5.20;4.70;;;;;;;;;;4992809;28;20758;-47
2021/08/02 11:04:14;;;;;;;6.27;4.17;;;;;;;;;;4992872;28;20415;-47
2021/08/02 11:06:40;;;;;;;4.33;3.90;;;;;;;;;;4983235;28;20420;-47
2021/08/02 11:09:06;;;;;;;7.00;5.30;;;;;;;;;;4973098;28;20470;-47
2021/08/02 11:11:37;;;;;;;5.23;4.70;;;;;;;;;;4972925;28;20397;-47
2021/08/02 11:14:20;;;;;;;8.03;5.03;;;;;;;;;;4973150;28;20401;-47
2021/08/02 11:16:47;;;;;;;5.30;4.80;;;;;;;;;;4972763;28;20398;-47
2021/08/02 11:19:18;;;;;;;4.40;4.00;;;;;;;;;;4955466;28;20475;-48
2021/08/02 11:21:45;;;;;;;6.47;4.67;;;;;;;;;;4972515;28;20457;-48
2021/08/02 11:24:12;;;;;;;6.27;3.87;;;;;;;;;;4972985;28;20400;-47
2021/08/02 11:26:49;;;;;;;4.57;4.17;;;;;;;;;;4973139;28;20401;-47
2021/08/02 11:29:19;;;;;;;5.13;4.70;;;;;;;;;;4972595;28;20472;-47
2021/08/02 11:31:53;;;;;;;6.20;5.60;;;;;;;;;;4972213;28;20444;-47
2021/08/02 11:34:19;;;;;;;7.80;7.20;;;;;;;;;;4972641;28;20405;-47
2021/08/02 11:36:45;;;;;;;8.50;4.70;;;;;;;;;;4972533;28;20418;-47
2021/08/02 11:39:15;;;;;;;4.93;4.43;;;;;;;;;;4972493;28;20432;-47
2021/08/02 11:41:41;;;;;;;5.30;4.80;;;;;;;;;;4972501;28;20422;-47
2021/08/02 11:44:07;;;;;;;5.40;4.90;;;;;;;;;;4972158;28;20409;-48
2021/08/02 11:46:35;;;;;;;5.83;4.33;;;;;;;;;;4972393;28;20404;-47
2021/08/02 11:49:01;;;;;;;4.77;4.30;;;;;;;;;;4972363;28;20467;-47
2021/08/02 11:51:27;;;;;;;5.93;3.83;;;;;;;;;;4972418;28;20403;-47
2021/08/02 11:53:53;;;;;;;4.23;3.90;;;;;;;;;;4972334;28;20404;-47
2021/08/02 11:56:30;;;;;;;10.10;3.90;;;;;;;;;;4972380;28;20810;-47
2021/08/02 11:58:56;;;;;;;3.97;3.50;;;;;;;;;;4972234;28;20423;-47
2021/08/02 12:01:22;;;;;;;3.53;3.33;;;;;;;;;;4972045;28;20937;-47
2021/08/02 12:03:48;;;;;;;4.47;2.73;;;;;;;;;;4972525;28;20913;-47
2021/08/02 12:06:14;;;;;;;3.27;2.97;;;;;;;;;;4972224;28;20508;-47
2021/08/02 12:08:50;;;;;;;4.40;3.27;;;;;;;;;;4972123;28;20975;-47
2021/08/02 12:11:17;;;;;;;3.03;2.83;;;;;;;;;;4971813;28;20822;-47
2021/08/02 12:13:48;;;;;;;3.17;2.57;;;;;;;;;;4972148;28;20448;-47
2021/08/02 12:16:25;;;;;;;6.40;2.63;;;;;;;;;;4972212;28;20402;-47
2021/08/02 12:19:01;;;;;;;4.80;2.40;;;;;;;;;;4972199;28;20415;-47
2021/08/02 12:21:28;;;;;;;2.60;2.37;;;;;;;;;;4971907;28;20804;-47
2021/08/02 12:24:04;;;;;;;3.00;2.80;;;;;;;;;;4971938;28;20786;-47
2021/08/02 12:26:29;;;;;;;2.60;2.40;;;;;;;;;;4971985;28;20875;-48
2021/08/02 12:28:55;;;;;;;2.80;2.60;;;;;;;;;;4971121;28;20551;-47
2021/08/02 12:33:51;;;;;;;2.30;2.20;;;;;;;;;;4961353;28;20564;-48
2021/08/02 12:36:18;;;;;;;2.83;2.63;;;;;;;;;;4971469;28;20940;-49
2021/08/02 12:38:48;;;;;;;2.57;2.30;;;;;;;;;;4970715;28;20409;-48
2021/08/02 12:41:16;;;;;;;3.87;2.50;;;;;;;;;;4970271;28;20919;-48
2021/08/02 12:43:42;;;;;;;5.23;2.20;;;;;;;;;;4971757;28;20406;-48
2021/08/02 12:46:09;;;;;;;2.27;2.17;;;;;;;;;;4967134;28;20417;-47
2021/08/02 12:48:35;;;;;;;2.17;2.07;;;;;;;;;;4971029;28;20510;-48
2021/08/02 12:51:01;;;;;;;2.07;1.97;;;;;;;;;;4972062;28;20433;-47
2021/08/02 12:53:27;;;;;;;3.80;2.33;;;;;;;;;;4972096;28;20421;-46
2021/08/02 12:55:53;;;;;;;2.40;2.10;;;;;;;;;;4972104;28;20492;-46
2021/08/02 12:58:20;;;;;;;3.23;2.83;;;;;;;;;;4970773;28;20472;-47
2021/08/02 13:00:46;;;;;;;3.57;2.43;;;;;;;;;;4956181;28;20876;-47
2021/08/02 13:03:13;;;;;;;2.97;2.83;;;;;;;;;;4972517;28;20464;-47
2021/08/02 13:05:39;;;;;;;2.33;2.20;;;;;;;;;;4972336;28;20440;-47
2021/08/02 13:08:05;;;;;;;4.23;2.80;;;;;;;;;;4969521;28;20420;-47
2021/08/02 13:10:34;;;;;;;3.20;2.90;;;;;;;;;;4965740;28;20409;-47
2021/08/02 13:13:00;;;;;;;4.57;2.97;;;;;;;;;;4971133;28;20425;-47
2021/08/02 13:15:26;;;;;;;6.83;3.47;;;;;;;;;;4971468;28;20468;-48
2021/08/02 13:17:52;;;;;;;5.03;3.30;;;;;;;;;;4971346;28;20405;-47
2021/08/02 13:20:19;;;;;;;4.80;3.23;;;;;;;;;;4971509;28;20415;-46
2021/08/02 13:22:56;;;;;;;5.30;3.37;;;;;;;;;;4971314;28;20502;-47
2021/08/02 13:28:07;;;;;;;3.40;3.10;;;;;;;;;;4970118;28;20841;-46
2021/08/02 13:30:33;;;;;;;3.57;3.37;;;;;;;;;;4971263;28;20403;-48
2021/08/02 13:32:59;;;;;;;4.13;3.73;;;;;;;;;;4971188;28;20447;-46
2021/08/02 13:35:25;;;;;;;3.60;3.33;;;;;;;;;;4971187;28;20435;-47
2021/08/02 13:37:51;;;;;;;4.37;3.60;;;;;;;;;;4971321;28;20892;-47
2021/08/02 13:40:17;;;;;;;3.93;3.63;;;;;;;;;;4973675;28;20427;-46
2021/08/02 13:42:47;;;;;;;4.90;3.77;;;;;;;;;;4974644;28;20524;-46
2021/08/02 13:45:13;;;;;;;4.93;4.17;;;;;;;;;;4974929;28;20500;-46
2021/08/02 13:47:39;;;;;;;5.50;5.00;;;;;;;;;;4974672;28;20935;-46
2021/08/02 13:50:05;;;;;;;7.00;4.13;;;;;;;;;;4974334;28;20455;-45
2021/08/02 13:52:31;;;;;;;4.40;4.10;;;;;;;;;;4974297;28;20434;-46
2021/08/02 13:54:57;;;;;;;5.00;4.60;;;;;;;;;;4974606;28;20402;-46
2021/08/02 13:57:23;;;;;;;5.07;4.67;;;;;;;;;;4974325;28;20405;-47
2021/08/02 13:59:49;;;;;;;7.33;4.10;;;;;;;;;;4974379;28;20411;-46
2021/08/02 14:02:15;;;;;;;5.33;4.47;;;;;;;;;;4974381;28;20867;-45
2021/08/02 14:04:41;;;;;;;6.73;4.70;;;;;;;;;;4974816;28;20418;-46
2021/08/02 14:07:09;;;;;;;7.13;4.10;;;;;;;;;;4974450;28;20414;-46
2021/08/02 14:09:35;;;;;;;4.87;3.97;;;;;;;;;;4974197;28;20467;-46
2021/08/02 14:12:04;;;;;;;4.70;4.40;;;;;;;;;;4974175;28;20438;-46
2021/08/02 14:14:34;;;;;;;5.77;4.30;;;;;;;;;;4974185;28;20416;-46
2021/08/02 14:17:04;;;;;;;5.80;4.10;;;;;;;;;;4974207;28;20408;-45
2021/08/02 14:19:30;;;;;;;4.63;4.23;;;;;;;;;;4974130;28;20410;-48
2021/08/02 14:21:58;;;;;;;9.97;4.83;;;;;;;;;;4973833;28;20432;-46
2021/08/02 14:24:25;;;;;;;8.90;4.43;;;;;;;;;;4974157;28;20410;-46
2021/08/02 14:26:51;;;;;;;4.90;4.10;;;;;;;;;;4974830;28;20412;-47
2021/08/02 14:29:18;;;;;;;7.63;4.00;;;;;;;;;;4974215;28;20452;-48
2021/08/02 14:31:44;;;;;;;6.63;4.83;;;;;;;;;;4967184;28;20449;-48
2021/08/02 14:34:12;;;;;;;5.93;4.67;;;;;;;;;;4973695;28;20815;-48
2021/08/02 14:36:41;;;;;;;4.70;3.90;;;;;;;;;;4973762;28;20412;-48
2021/08/02 14:39:07;;;;;;;4.33;3.93;;;;;;;;;;4973903;28;20408;-47
2021/08/02 14:41:36;;;;;;;7.70;3.87;;;;;;;;;;4973606;28;20433;-47